createdAt,value
2022-10-24T00:01:23.190Z,100176.16
2022-10-24T00:03:51.104Z,100176.50
2022-10-24T00:06:19.429Z,100183.69
2022-10-24T00:08:47.257Z,100171.75
2022-10-24T00:11:23.638Z,100175.22
2022-10-24T00:13:52.147Z,100177.56
2022-10-24T00:16:19.796Z,100173.03
2022-10-24T00:18:47.264Z,100168.91
2022-10-24T00:21:14.590Z,100167.81
2022-10-24T00:23:42.262Z,100172.09
2022-10-24T00:26:10.968Z,100174.97
2022-10-24T00:28:38.919Z,100182.81
2022-10-24T00:31:07.591Z,100179.06
2022-10-24T00:33:34.968Z,100169.44
2022-10-24T00:36:02.255Z,100166.84
2022-10-24T00:38:29.817Z,100156.34
2022-10-24T00:40:57.193Z,100172.22
2022-10-24T00:43:26.642Z,100161.44
2022-10-24T00:45:59.124Z,100156.25
2022-10-24T00:48:37.031Z,100151.19
2022-10-24T00:51:21.706Z,100149.34
2022-10-24T00:53:51.314Z,100158.31
2022-10-24T00:56:21.957Z,100151.84
2022-10-24T00:58:50.096Z,100155.37
2022-10-24T01:01:17.643Z,100149.81
2022-10-24T01:03:45.237Z,100150.06
2022-10-24T01:06:32.040Z,100139.94
2022-10-24T01:09:18.453Z,100156.44
2022-10-24T01:11:50.578Z,100150.38
2022-10-24T01:14:28.536Z,100141.63
2022-10-24T01:17:14.644Z,100132.13
2022-10-24T01:20:03.827Z,100142.69
2022-10-24T01:22:43.806Z,100137.38
2022-10-24T01:25:38.266Z,100148.87
2022-10-24T01:28:15.575Z,100151.41
2022-10-24T01:30:49.969Z,100154.84
2022-10-24T01:33:23.141Z,100156.72
2022-10-24T01:36:01.420Z,100165.66
2022-10-24T01:38:34.555Z,100161.28
2022-10-24T01:41:08.420Z,100145.63
2022-10-24T01:43:43.234Z,100153.22
2022-10-24T01:46:19.472Z,100153.28
2022-10-24T01:48:55.247Z,100139.13
2022-10-24T01:51:25.525Z,100141.81
2022-10-24T01:53:53.359Z,100143.50
2022-10-24T01:56:20.651Z,100137.03
2022-10-24T01:58:48.263Z,100136.16
2022-10-24T02:01:19.823Z,100133.56
2022-10-24T02:03:52.138Z,100133.62
2022-10-24T02:06:21.344Z,100122.28
2022-10-24T02:08:53.125Z,100115.22
2022-10-24T02:11:20.765Z,100122.22
2022-10-24T02:13:56.023Z,100110.06
2022-10-24T02:16:23.652Z,100119.50
2022-10-24T02:18:52.612Z,100116.00
2022-10-24T02:21:32.122Z,100103.25
2022-10-24T02:24:21.949Z,100098.28
2022-10-24T02:26:54.398Z,100106.31
2022-10-24T02:29:28.718Z,100105.44
2022-10-24T02:31:57.996Z,100112.06
2022-10-24T02:34:29.584Z,100121.47
2022-10-24T02:36:58.187Z,100125.03
2022-10-24T02:39:26.416Z,100110.12
2022-10-24T02:41:54.938Z,100102.53
2022-10-24T02:44:23.621Z,100102.88
2022-10-24T02:46:53.233Z,100109.97
2022-10-24T02:49:20.634Z,100109.62
2022-10-24T02:51:48.512Z,100119.50
2022-10-24T02:54:16.091Z,100130.28
2022-10-24T02:56:49.859Z,100126.34
2022-10-24T02:59:17.424Z,100117.81
2022-10-24T03:01:44.794Z,100119.94
2022-10-24T03:04:12.132Z,100110.97
2022-10-24T03:06:39.710Z,100097.63
2022-10-24T03:09:07.062Z,100095.41
2022-10-24T03:11:34.471Z,100083.88
2022-10-24T03:14:02.340Z,100085.31
2022-10-24T03:16:29.784Z,100079.75
2022-10-24T03:18:57.194Z,100075.25
2022-10-24T03:21:24.736Z,100080.31
2022-10-24T03:23:52.137Z,100069.62
2022-10-24T03:26:19.459Z,100083.50
2022-10-24T03:28:47.013Z,100086.50
2022-10-24T03:31:14.334Z,100080.38
2022-10-24T03:33:41.618Z,100089.84
2022-10-24T03:36:09.241Z,100087.16
2022-10-24T03:38:36.527Z,100093.16
2022-10-24T03:41:05.141Z,100095.06
2022-10-24T03:43:32.708Z,100084.87
2022-10-24T03:46:00.027Z,100088.41
2022-10-24T03:48:27.514Z,100091.50
2022-10-24T03:50:55.380Z,100093.75
2022-10-24T03:53:22.721Z,100091.87
2022-10-24T03:55:50.083Z,100095.44
2022-10-24T03:58:17.704Z,100105.22
2022-10-24T04:00:45.317Z,100107.06
2022-10-24T04:03:12.924Z,100102.31
2022-10-24T04:05:40.776Z,100102.47
2022-10-24T04:08:08.307Z,100111.72
2022-10-24T04:10:36.189Z,100108.31
2022-10-24T04:13:03.670Z,100112.00
2022-10-24T04:15:31.153Z,100111.13
2022-10-24T04:17:58.753Z,100107.72
2022-10-24T04:20:26.204Z,100098.09
2022-10-24T04:22:53.583Z,100092.31
2022-10-24T04:25:21.236Z,100095.00
2022-10-24T04:27:48.557Z,100087.34
2022-10-24T04:30:16.919Z,100090.12
2022-10-24T04:32:45.200Z,100092.72
2022-10-24T04:35:14.124Z,100092.06
2022-10-24T04:37:41.446Z,100087.03
2022-10-24T04:40:09.426Z,100089.78
2022-10-24T04:42:36.726Z,100093.63
2022-10-24T04:45:04.254Z,100085.88
2022-10-24T04:47:31.866Z,100081.00
2022-10-24T04:49:59.149Z,100077.44
2022-10-24T04:52:26.690Z,100070.91
2022-10-24T04:54:54.726Z,100076.22
2022-10-24T04:57:22.018Z,100073.53
2022-10-24T04:59:49.287Z,100068.22
2022-10-24T05:02:17.010Z,100068.13
2022-10-24T05:04:44.395Z,100068.94
2022-10-24T05:07:11.736Z,100075.13
2022-10-24T05:09:39.300Z,100084.34
2022-10-24T05:12:06.725Z,100097.87
2022-10-24T05:14:34.310Z,100099.59
2022-10-24T05:17:02.000Z,100093.00
2022-10-24T05:19:29.579Z,100104.66
2022-10-24T05:21:56.889Z,100113.88
2022-10-24T05:24:24.998Z,100115.06
2022-10-24T05:26:52.311Z,100113.31
2022-10-24T05:29:19.856Z,100121.06
2022-10-24T05:31:47.473Z,100127.22
2022-10-24T05:34:14.757Z,100129.78
2022-10-24T05:36:42.056Z,100132.41
2022-10-24T05:39:09.587Z,100121.28
2022-10-24T05:41:36.915Z,100115.94
2022-10-24T05:44:04.394Z,100127.00
2022-10-24T05:46:31.949Z,100139.47
2022-10-24T05:48:59.288Z,100140.12
2022-10-24T05:51:27.382Z,100143.50
2022-10-24T05:53:54.948Z,100150.72
2022-10-24T05:56:22.257Z,100158.34
2022-10-24T05:58:49.561Z,100157.59
2022-10-24T06:01:17.537Z,100156.53
2022-10-24T06:03:45.190Z,100149.22
2022-10-24T06:06:12.505Z,100153.91
2022-10-24T06:08:39.811Z,100150.56
2022-10-24T06:11:10.894Z,100144.25
2022-10-24T06:13:38.809Z,100136.16
2022-10-24T06:16:06.766Z,100136.59
2022-10-24T06:18:34.339Z,100138.44
2022-10-24T06:21:02.638Z,100127.97
2022-10-24T06:23:30.370Z,100125.25
2022-10-24T06:25:58.062Z,100134.78
2022-10-24T06:28:25.460Z,100129.63
2022-10-24T06:30:54.536Z,100123.13
2022-10-24T06:33:22.107Z,100127.78
2022-10-24T06:35:49.396Z,100119.78
2022-10-24T06:38:16.688Z,100117.19
2022-10-24T06:40:44.274Z,100123.31
2022-10-24T06:43:11.599Z,100133.84
2022-10-24T06:45:57.176Z,100115.63
2022-10-24T06:48:24.756Z,100107.16
2022-10-24T06:50:52.047Z,100121.69
2022-10-24T06:55:51.847Z,100128.06
2022-10-24T06:58:19.157Z,100124.91
2022-10-24T07:00:46.501Z,100122.63
2022-10-24T07:03:15.395Z,100129.63
2022-10-24T07:05:42.892Z,100130.97
2022-10-24T07:08:10.973Z,100137.88
2022-10-24T07:10:38.650Z,100145.66
2022-10-24T07:13:06.149Z,100158.91
2022-10-24T07:15:33.480Z,100162.41
2022-10-24T07:18:01.025Z,100174.72
2022-10-24T07:20:28.407Z,100171.12
2022-10-24T07:22:55.707Z,100175.25
2022-10-24T07:25:23.264Z,100169.28
2022-10-24T07:27:52.556Z,100178.69
2022-10-24T07:30:19.841Z,100172.19
2022-10-24T07:32:48.693Z,100171.03
2022-10-24T07:35:16.254Z,100158.91
2022-10-24T07:37:43.874Z,100157.94
2022-10-24T07:40:12.207Z,100158.66
2022-10-24T07:42:39.499Z,100172.87
2022-10-24T07:45:07.400Z,100175.34
2022-10-24T07:47:34.959Z,100171.59
2022-10-24T07:50:02.350Z,100179.59
2022-10-24T07:52:29.642Z,100183.63
2022-10-24T07:54:58.050Z,100188.56
2022-10-24T07:57:32.381Z,100185.19
2022-10-24T07:59:59.960Z,100184.31
2022-10-24T08:02:27.262Z,100181.28
2022-10-24T08:04:54.854Z,100196.56
2022-10-24T08:07:22.373Z,100192.19
2022-10-24T08:09:51.226Z,100190.44
2022-10-24T08:12:19.003Z,100186.63
2022-10-24T08:14:46.366Z,100177.78
2022-10-24T08:17:13.887Z,100171.00
2022-10-24T08:19:43.739Z,100170.25
2022-10-24T08:22:12.138Z,100165.63
2022-10-24T08:24:39.437Z,100161.06
2022-10-24T08:27:06.997Z,100166.59
2022-10-24T08:29:34.334Z,100167.31
2022-10-24T08:32:01.898Z,100163.81
2022-10-24T08:34:29.468Z,100163.47
2022-10-24T08:36:56.770Z,100163.09
2022-10-24T08:39:24.326Z,100157.06
2022-10-24T08:41:59.509Z,100160.09
2022-10-24T08:44:30.446Z,100159.37
2022-10-24T08:47:29.056Z,100142.72
2022-10-24T08:50:23.385Z,100139.31
2022-10-24T08:53:11.193Z,100142.84
2022-10-24T08:55:55.195Z,100145.59
2022-10-24T08:58:42.324Z,100136.75
2022-10-24T09:01:27.450Z,100137.47
2022-10-24T09:03:56.989Z,100143.22
2022-10-24T09:06:27.024Z,100146.66
2022-10-24T09:09:00.697Z,100143.16
2022-10-24T09:11:49.754Z,100136.13
2022-10-24T09:14:22.990Z,100136.38
2022-10-24T09:17:13.283Z,100144.03
2022-10-24T09:19:41.132Z,100140.47
2022-10-24T09:22:11.484Z,100142.97
2022-10-24T09:24:58.904Z,100141.00
2022-10-24T09:27:34.603Z,100145.59
2022-10-24T09:30:02.118Z,100153.22
2022-10-24T09:32:31.834Z,100153.03
2022-10-24T09:35:15.426Z,100152.16
2022-10-24T09:37:47.417Z,100162.41
2022-10-24T09:40:19.047Z,100165.03
2022-10-24T09:42:52.833Z,100183.84
2022-10-24T09:45:39.846Z,100186.50
2022-10-24T09:48:17.420Z,100185.44
2022-10-24T09:50:46.167Z,100187.97
2022-10-24T09:53:32.688Z,100183.13
2022-10-24T09:56:03.064Z,100171.78
2022-10-24T09:58:35.540Z,100177.06
2022-10-24T10:01:07.117Z,100167.84
2022-10-24T10:03:35.503Z,100171.41
2022-10-24T10:06:14.852Z,100167.56
2022-10-24T10:08:49.752Z,100163.50
2022-10-24T10:11:30.567Z,100171.47
2022-10-24T10:14:01.338Z,100162.16
2022-10-24T10:16:37.551Z,100151.88
2022-10-24T10:19:19.667Z,100153.44
2022-10-24T10:22:04.428Z,100155.03
2022-10-24T10:24:39.439Z,100152.03
2022-10-24T10:27:38.532Z,100148.94
2022-10-24T10:30:18.227Z,100140.94
2022-10-24T10:33:24.389Z,100145.94
2022-10-24T10:36:05.504Z,100147.78
2022-10-24T10:38:41.671Z,100145.16
2022-10-24T10:41:51.527Z,100150.59
2022-10-24T10:44:33.956Z,100146.06
2022-10-24T10:47:35.189Z,100127.72
2022-10-24T10:50:15.791Z,100127.03
2022-10-24T10:52:49.988Z,100130.91
2022-10-24T10:55:21.620Z,100119.91
2022-10-24T10:58:18.664Z,100123.09
2022-10-24T11:00:47.796Z,100124.91
2022-10-24T11:03:30.369Z,100121.66
2022-10-24T11:06:00.576Z,100110.72
2022-10-24T11:09:02.028Z,100117.38
2022-10-24T11:11:32.483Z,100119.88
2022-10-24T11:14:06.450Z,100123.56
2022-10-24T11:16:35.528Z,100116.62
2022-10-24T11:19:22.042Z,100115.31
2022-10-24T11:21:50.306Z,100119.09
2022-10-24T11:24:21.217Z,100126.81
2022-10-24T11:26:54.618Z,100128.50
2022-10-24T11:30:03.809Z,100127.53
2022-10-24T11:32:50.805Z,100116.44
2022-10-24T11:35:40.323Z,100112.22
2022-10-24T11:38:16.459Z,100123.84
2022-10-24T11:40:46.253Z,100122.94
2022-10-24T11:43:19.111Z,100120.31
2022-10-24T11:46:11.454Z,100117.53
2022-10-24T11:49:00.624Z,100109.72
2022-10-24T11:51:33.683Z,100111.41
2022-10-24T11:54:04.775Z,100110.97
2022-10-24T11:56:43.314Z,100108.31
2022-10-24T11:59:20.017Z,100104.69
2022-10-24T12:01:59.229Z,100106.84
2022-10-24T12:04:39.117Z,100106.72
2022-10-24T12:07:54.703Z,100109.59
2022-10-24T12:11:01.627Z,100114.19
2022-10-24T12:13:56.768Z,100100.47
2022-10-24T12:16:42.709Z,100093.97
2022-10-24T12:19:16.162Z,100093.22
2022-10-24T12:21:51.843Z,100086.31
2022-10-24T12:24:38.053Z,100066.97
2022-10-24T12:27:08.379Z,100070.25
2022-10-24T12:29:36.742Z,100080.09
2022-10-24T12:32:24.004Z,100083.12
2022-10-24T12:35:30.463Z,100090.56
2022-10-24T12:37:58.593Z,100088.63
2022-10-24T12:40:45.022Z,100081.37
2022-10-24T12:43:43.211Z,100084.47
2022-10-24T12:46:21.623Z,100074.50
2022-10-24T12:48:59.494Z,100066.69
2022-10-24T12:51:33.253Z,100066.75
2022-10-24T12:54:02.499Z,100067.78
2022-10-24T12:56:31.461Z,100065.03
2022-10-24T12:59:02.966Z,100056.41
2022-10-24T13:01:34.971Z,100039.09
2022-10-24T13:04:25.504Z,100040.78
2022-10-24T13:07:02.376Z,100037.37
2022-10-24T13:09:55.401Z,100048.75
2022-10-24T13:12:36.227Z,100050.44
2022-10-24T13:15:16.886Z,100050.59
2022-10-24T13:18:03.725Z,100031.19
2022-10-24T13:20:37.401Z,100033.50
2022-10-24T13:23:23.336Z,100031.25
2022-10-24T13:25:58.553Z,100023.34
2022-10-24T13:28:27.185Z,100024.53
2022-10-24T13:30:54.365Z,100040.22
2022-10-24T13:33:44.867Z,100038.22
2022-10-24T13:36:17.506Z,100032.12
2022-10-24T13:38:46.565Z,100033.78
2022-10-24T13:41:21.358Z,100028.28
2022-10-24T13:43:49.881Z,100029.72
2022-10-24T13:46:28.722Z,100037.78
2022-10-24T13:48:57.509Z,100031.56
2022-10-24T13:51:32.563Z,100024.22
2022-10-24T13:54:04.076Z,100028.19
2022-10-24T13:56:36.560Z,100029.16
2022-10-24T13:59:03.910Z,100027.06
2022-10-24T14:01:31.481Z,100030.56
2022-10-24T14:03:59.504Z,100024.44
2022-10-24T14:06:29.475Z,100031.09
2022-10-24T14:09:06.939Z,100022.16
2022-10-24T14:11:39.862Z,100013.87
2022-10-24T14:14:18.623Z,100012.06
2022-10-24T14:16:46.223Z,100006.66
2022-10-24T14:19:29.539Z,100012.06
2022-10-24T14:21:59.709Z,100018.22
2022-10-24T14:24:27.107Z,100015.22
2022-10-24T14:26:56.781Z,100018.81
2022-10-24T14:29:32.398Z,100013.78
2022-10-24T14:32:02.271Z,100027.84
2022-10-24T14:34:35.955Z,100022.50
2022-10-24T14:37:09.130Z,100025.59
2022-10-24T14:39:37.033Z,100020.13
2022-10-24T14:42:04.945Z,100022.88
2022-10-24T14:44:35.017Z,100017.44
2022-10-24T14:47:15.527Z,100014.94
2022-10-24T14:49:42.826Z,100011.88
2022-10-24T14:52:15.040Z,100018.47
2022-10-24T14:54:44.447Z,100006.09
2022-10-24T14:57:18.564Z,100016.09
2022-10-24T14:59:46.947Z,100024.09
2022-10-24T15:02:21.267Z,100022.88
2022-10-24T15:04:50.410Z,100026.53
2022-10-24T15:07:29.607Z,100023.47
2022-10-24T15:10:01.346Z,100015.69
2022-10-24T15:12:53.621Z,100022.12
2022-10-24T15:15:23.004Z,100017.72
2022-10-24T15:17:51.853Z,100015.12
2022-10-24T15:20:22.131Z,100019.66
2022-10-24T15:22:51.446Z,100018.69
2022-10-24T15:25:31.265Z,100008.03
2022-10-24T15:27:59.513Z,100006.25
2022-10-24T15:30:36.873Z,100003.25
2022-10-24T15:33:06.456Z,100005.75
2022-10-24T15:35:36.250Z,100007.47
2022-10-24T15:38:17.038Z,99998.50
2022-10-24T15:40:47.451Z,100003.97
2022-10-24T15:43:18.868Z,100005.69
2022-10-24T15:45:46.658Z,100003.03
2022-10-24T15:48:14.005Z,100001.44
2022-10-24T15:50:44.493Z,99999.03
2022-10-24T15:53:20.292Z,100006.59
2022-10-24T15:55:47.768Z,99997.12
2022-10-24T15:58:16.807Z,99996.06
2022-10-24T16:00:44.511Z,99992.63
2022-10-24T16:03:16.876Z,99992.72
2022-10-24T16:05:47.397Z,99985.53
2022-10-24T16:08:18.703Z,99998.47
2022-10-24T16:10:48.255Z,100010.34
2022-10-24T16:13:16.838Z,100019.22
2022-10-24T16:15:44.785Z,100016.22
2022-10-24T16:18:12.841Z,99992.28
2022-10-24T16:20:40.995Z,100002.75
2022-10-24T16:23:08.850Z,99992.50
2022-10-24T16:25:37.637Z,99994.63
2022-10-24T16:28:07.297Z,100003.72
2022-10-24T16:30:38.125Z,100004.38
2022-10-24T16:33:05.771Z,100003.03
2022-10-24T16:35:35.748Z,100004.62
2022-10-24T16:38:04.539Z,99993.37
2022-10-24T16:40:32.719Z,99994.13
2022-10-24T16:43:00.277Z,99995.50
2022-10-24T16:45:27.659Z,99995.19
2022-10-24T16:47:55.297Z,99987.47
2022-10-24T16:50:26.151Z,99990.09
2022-10-24T16:52:55.661Z,99999.81
2022-10-24T16:55:23.503Z,100000.19
2022-10-24T16:57:50.810Z,100004.06
2022-10-24T17:00:22.497Z,100005.94
2022-10-24T17:02:51.901Z,100011.00
2022-10-24T17:05:22.981Z,100003.78
2022-10-24T17:07:50.638Z,100004.13
2022-10-24T17:10:20.765Z,99999.00
2022-10-24T17:12:52.076Z,100002.00
2022-10-24T17:15:22.171Z,99997.56
2022-10-24T17:17:50.168Z,99999.63
2022-10-24T17:20:17.952Z,100000.09
2022-10-24T17:22:46.411Z,99998.72
2022-10-24T17:25:23.377Z,99998.44
2022-10-24T17:27:51.470Z,100004.53
2022-10-24T17:30:24.977Z,99999.88
2022-10-24T17:32:52.739Z,99998.12
2022-10-24T17:35:22.346Z,100004.72
2022-10-24T17:37:55.775Z,100004.56
2022-10-24T17:40:25.998Z,99998.53
2022-10-24T17:42:53.519Z,99989.62
2022-10-24T17:45:23.128Z,99980.97
2022-10-24T17:47:51.014Z,99986.37
2022-10-24T17:50:18.808Z,99992.72
2022-10-24T17:52:50.802Z,99995.09
2022-10-24T17:55:41.316Z,99993.37
2022-10-24T17:58:09.339Z,99998.66
2022-10-24T18:00:37.282Z,99999.03
2022-10-24T18:03:05.382Z,99986.81
2022-10-24T18:05:37.442Z,99995.78
2022-10-24T18:08:06.815Z,99995.78
2022-10-24T18:10:34.973Z,100003.19
2022-10-24T18:13:02.688Z,99996.09
2022-10-24T18:15:30.293Z,99995.44
2022-10-24T18:17:57.625Z,99993.63
2022-10-24T18:20:24.956Z,99988.88
2022-10-24T18:22:52.704Z,99983.59
2022-10-24T18:25:22.768Z,99978.53
2022-10-24T18:27:50.943Z,99975.03
2022-10-24T18:30:19.500Z,99972.75
2022-10-24T18:32:47.525Z,99986.72
2022-10-24T18:35:15.550Z,99974.59
2022-10-24T18:37:43.271Z,99985.34
2022-10-24T18:40:11.291Z,99985.37
2022-10-24T18:43:04.180Z,99990.66
2022-10-24T18:45:32.923Z,99988.84
2022-10-24T18:48:00.547Z,99977.75
2022-10-24T18:50:28.732Z,99981.13
2022-10-24T18:53:08.309Z,99972.44
2022-10-24T18:55:35.950Z,99962.06
2022-10-24T18:58:03.707Z,99963.87
2022-10-24T19:00:32.861Z,99947.81
2022-10-24T19:03:21.891Z,99939.94
2022-10-24T19:05:59.760Z,99951.97
2022-10-24T19:08:27.722Z,99952.12
2022-10-24T19:10:56.361Z,99952.97
2022-10-24T19:13:25.359Z,99945.94
2022-10-24T19:15:56.987Z,99964.06
2022-10-24T19:18:25.108Z,99958.88
2022-10-24T19:20:52.662Z,99957.47
2022-10-24T19:23:20.041Z,99946.72
2022-10-24T19:25:47.588Z,99950.03
2022-10-24T19:28:16.731Z,99951.78
2022-10-24T19:30:45.207Z,99958.62
2022-10-24T19:33:13.939Z,99953.28
2022-10-24T19:35:46.731Z,99951.75
2022-10-24T19:38:18.094Z,99943.84
2022-10-24T19:40:51.818Z,99940.06
2022-10-24T19:43:23.416Z,99946.22
2022-10-24T19:46:07.099Z,99936.66
2022-10-24T19:48:37.693Z,99930.53
2022-10-24T19:51:12.203Z,99938.38
2022-10-24T19:53:42.669Z,99947.91
2022-10-24T19:56:20.160Z,99954.00
2022-10-24T19:58:50.505Z,99948.97
2022-10-24T20:01:20.692Z,99929.81
2022-10-24T20:03:49.439Z,99908.38
2022-10-24T20:06:17.143Z,99904.41
2022-10-24T20:08:48.679Z,99901.84
2022-10-24T20:11:16.887Z,99901.87
2022-10-24T20:13:44.303Z,99894.81
2022-10-24T20:16:11.825Z,99907.00
2022-10-24T20:21:16.160Z,99923.00
2022-10-24T20:23:45.610Z,99923.63
2022-10-24T20:26:22.645Z,99921.03
2022-10-24T20:28:51.799Z,99915.84
2022-10-24T20:31:27.793Z,99927.94
2022-10-24T20:34:05.185Z,99916.78
2022-10-24T20:36:44.473Z,99919.28
2022-10-24T20:39:12.395Z,99922.78
2022-10-24T20:41:40.053Z,99913.44
2022-10-24T20:44:07.491Z,99913.44
2022-10-24T20:46:35.999Z,99921.28
2022-10-24T20:49:03.546Z,99922.94
2022-10-24T20:51:30.853Z,99920.19
2022-10-24T20:53:58.427Z,99919.69
2022-10-24T20:56:26.739Z,99935.09
2022-10-24T20:58:56.664Z,99933.37
2022-10-24T21:01:26.490Z,99931.75
2022-10-24T21:03:55.265Z,99945.59
2022-10-24T21:06:31.170Z,99937.72
2022-10-24T21:11:34.847Z,99941.19
2022-10-24T21:14:07.631Z,99941.41
2022-10-24T21:16:35.279Z,99935.00
2022-10-24T21:19:03.869Z,99928.59
2022-10-24T21:21:31.248Z,99935.25
2022-10-24T21:24:04.229Z,99931.31
2022-10-24T21:26:40.171Z,99942.09
2022-10-24T21:29:20.680Z,99938.88
2022-10-24T21:31:55.520Z,99948.84
2022-10-24T21:34:23.805Z,99940.13
2022-10-24T21:36:51.120Z,99943.72
2022-10-24T21:39:18.664Z,99941.03
2022-10-24T21:41:45.936Z,99951.62
2022-10-24T21:44:14.385Z,99961.25
2022-10-24T21:46:42.027Z,99958.75
2022-10-24T21:49:09.656Z,99968.94
2022-10-24T21:51:39.145Z,99969.94
2022-10-24T21:54:21.484Z,99975.81
2022-10-24T21:56:48.954Z,99978.28
2022-10-24T21:59:18.798Z,99978.37
2022-10-24T22:01:47.229Z,99970.97
2022-10-24T22:04:15.584Z,99972.16
2022-10-24T22:06:43.334Z,99968.44
2022-10-24T22:09:13.648Z,99967.75
2022-10-24T22:11:42.316Z,99975.59
2022-10-24T22:14:10.595Z,99957.94
2022-10-24T22:16:38.047Z,99957.88
2022-10-24T22:19:06.138Z,99957.50
2022-10-24T22:21:44.718Z,99965.75
2022-10-24T22:24:18.816Z,99964.75
2022-10-24T22:26:47.093Z,99958.94
2022-10-24T22:29:16.843Z,99957.78
2022-10-24T22:31:44.662Z,99955.91
2022-10-24T22:34:17.305Z,99955.19
2022-10-24T22:37:02.342Z,99952.69
2022-10-24T22:39:29.840Z,99961.50
2022-10-24T22:41:57.605Z,99948.91
2022-10-24T22:44:25.182Z,99962.06
2022-10-24T22:47:17.449Z,99957.31
2022-10-24T22:49:59.039Z,99955.31
2022-10-24T22:52:26.651Z,99951.81
2022-10-24T22:54:54.507Z,99947.41
2022-10-24T22:57:22.126Z,99953.72
2022-10-24T22:59:49.741Z,99943.97
2022-10-24T23:02:28.964Z,99956.84
2022-10-24T23:05:29.495Z,99960.28
2022-10-24T23:08:03.740Z,99944.25
2022-10-24T23:10:31.458Z,99934.00
2022-10-24T23:12:59.382Z,99929.31
2022-10-24T23:15:27.011Z,99924.66
2022-10-24T23:17:54.647Z,99927.13
2022-10-24T23:20:54.476Z,99941.41
2022-10-24T23:23:29.149Z,99934.41
2022-10-24T23:26:03.811Z,99928.03
2022-10-24T23:28:38.230Z,99916.69
2022-10-24T23:31:06.118Z,99909.63
2022-10-24T23:33:33.588Z,99899.22
2022-10-24T23:36:01.122Z,99907.03
2022-10-24T23:38:28.915Z,99899.06
2022-10-24T23:40:56.568Z,99896.38
2022-10-24T23:43:24.163Z,99903.19
2022-10-24T23:46:00.366Z,99911.22
2022-10-24T23:48:59.097Z,99905.19
2022-10-24T23:51:47.242Z,99902.72
2022-10-24T23:54:15.483Z,99904.47
2022-10-24T23:56:43.238Z,99913.62
2022-10-24T23:59:10.556Z,99913.53
